createdAt,value
2022-11-08T00:03:01.603Z,183.87
2022-11-08T00:06:22.540Z,404.53
2022-11-08T00:09:43.498Z,232.05
2022-11-08T00:13:03.987Z,391.52
2022-11-08T00:16:06.258Z,126.75
2022-11-08T00:19:08.410Z,276.42
2022-11-08T00:22:10.936Z,114.70
2022-11-08T00:25:13.111Z,214.52
2022-11-08T00:28:15.660Z,290.20
2022-11-08T00:31:18.071Z,181.30
2022-11-08T00:34:20.239Z,80.10
2022-11-08T00:37:23.005Z,133.60
2022-11-08T00:40:25.184Z,180.40
2022-11-08T00:43:27.391Z,124.18
2022-11-08T00:46:29.791Z,395.77
2022-11-08T00:49:32.030Z,99.60
2022-11-08T00:52:34.195Z,88.97
2022-11-08T00:55:36.352Z,92.65
2022-11-08T00:58:38.883Z,94.93
2022-11-08T01:01:41.814Z,112.10
2022-11-08T01:04:44.137Z,130.00
2022-11-08T01:07:46.593Z,184.03
2022-11-08T01:10:50.349Z,239.32
2022-11-08T01:13:55.845Z,200.35
2022-11-08T01:16:58.022Z,168.00
2022-11-08T01:20:00.295Z,304.20
2022-11-08T01:23:02.523Z,231.83
2022-11-08T01:26:06.294Z,107.32
2022-11-08T01:29:08.466Z,158.07
2022-11-08T01:32:10.609Z,143.32
2022-11-08T01:35:12.784Z,87.07
2022-11-08T01:38:15.385Z,96.60
2022-11-08T01:41:18.157Z,81.13
2022-11-08T01:44:21.776Z,157.05
2022-11-08T01:47:23.972Z,225.85
2022-11-08T01:50:26.201Z,271.67
2022-11-08T01:53:29.462Z,144.67
2022-11-08T01:56:31.868Z,159.10
2022-11-08T01:59:35.859Z,134.43
2022-11-08T02:02:38.881Z,109.78
2022-11-08T02:05:41.042Z,188.03
2022-11-08T02:08:43.883Z,89.00
2022-11-08T02:11:46.800Z,151.75
2022-11-08T02:14:48.975Z,122.95
2022-11-08T02:17:51.218Z,96.75
2022-11-08T02:21:12.955Z,114.07
2022-11-08T02:24:15.750Z,126.83
2022-11-08T02:27:18.135Z,102.18
2022-11-08T02:30:20.572Z,98.03
2022-11-08T02:33:23.373Z,91.22
2022-11-08T02:36:25.684Z,80.18
2022-11-08T02:39:28.955Z,94.20
2022-11-08T02:42:31.060Z,112.50
2022-11-08T02:45:33.233Z,85.95
2022-11-08T02:48:35.704Z,120.38
2022-11-08T02:51:37.976Z,113.15
2022-11-08T02:54:40.185Z,107.67
2022-11-08T02:57:42.367Z,109.65
2022-11-08T03:00:44.563Z,111.47
2022-11-08T03:03:46.779Z,101.40
2022-11-08T03:06:49.052Z,106.87
2022-11-08T03:09:51.191Z,104.97
2022-11-08T03:12:57.256Z,103.60
2022-11-08T03:16:01.666Z,117.07
2022-11-08T03:19:03.877Z,127.63
2022-11-08T03:22:06.016Z,126.23
2022-11-08T03:25:08.464Z,108.93
2022-11-08T03:28:10.996Z,141.40
2022-11-08T03:31:13.141Z,118.68
2022-11-08T03:34:15.388Z,102.53
2022-11-08T03:37:17.569Z,105.13
2022-11-08T03:40:19.993Z,120.43
2022-11-08T03:43:22.178Z,108.90
2022-11-08T03:46:24.404Z,103.53
2022-11-08T03:49:27.202Z,94.07
2022-11-08T03:52:29.383Z,126.63
2022-11-08T03:55:31.878Z,108.20
2022-11-08T03:58:35.501Z,98.45
2022-11-08T04:01:38.168Z,100.80
2022-11-08T04:04:40.467Z,122.80
2022-11-08T04:07:42.605Z,123.95
2022-11-08T04:10:44.971Z,100.20
2022-11-08T04:14:05.711Z,117.78
2022-11-08T04:17:07.937Z,118.60
2022-11-08T04:20:28.792Z,108.82
2022-11-08T04:23:31.863Z,117.00
2022-11-08T04:26:34.040Z,105.73
2022-11-08T04:29:36.234Z,111.35
2022-11-08T04:32:38.368Z,112.05
2022-11-08T04:35:40.512Z,104.30
2022-11-08T04:38:43.122Z,112.28
2022-11-08T04:41:45.578Z,113.93
2022-11-08T04:44:47.798Z,136.02
2022-11-08T04:47:50.026Z,146.38
2022-11-08T04:50:52.233Z,147.05
2022-11-08T04:53:54.768Z,88.35
2022-11-08T04:56:56.938Z,133.50
2022-11-08T04:59:59.211Z,95.75
2022-11-08T05:03:04.406Z,127.10
2022-11-08T05:06:07.987Z,119.18
2022-11-08T05:09:14.421Z,133.38
2022-11-08T05:12:24.851Z,105.97
2022-11-08T05:15:27.403Z,145.43
2022-11-08T05:18:30.207Z,134.93
2022-11-08T05:21:50.994Z,136.23
2022-11-08T05:24:53.183Z,120.85
2022-11-08T05:27:55.328Z,115.93
2022-11-08T05:30:57.694Z,105.95
2022-11-08T05:34:00.907Z,129.02
2022-11-08T05:37:03.289Z,118.10
2022-11-08T05:40:05.832Z,110.53
2022-11-08T05:43:17.228Z,173.67
2022-11-08T05:46:20.849Z,200.27
2022-11-08T05:49:23.582Z,188.10
2022-11-08T05:52:25.841Z,179.10
2022-11-08T05:55:30.621Z,185.35
2022-11-08T05:58:33.984Z,164.00
2022-11-08T06:01:36.723Z,167.27
2022-11-08T06:04:39.211Z,149.75
2022-11-08T06:07:41.446Z,140.38
2022-11-08T06:10:44.171Z,131.90
2022-11-08T06:13:47.019Z,133.73
2022-11-08T06:16:49.319Z,157.43
2022-11-08T06:19:51.826Z,132.10
2022-11-08T06:22:55.268Z,121.47
2022-11-08T06:26:03.410Z,115.35
2022-11-08T06:29:05.618Z,178.97
2022-11-08T06:32:11.139Z,178.30
2022-11-08T06:35:13.374Z,182.25
2022-11-08T06:38:15.773Z,203.75
2022-11-08T06:41:19.130Z,146.60
2022-11-08T06:44:23.735Z,129.27
2022-11-08T06:47:28.450Z,199.32
2022-11-08T06:50:39.881Z,283.08
2022-11-08T06:53:46.598Z,154.13
2022-11-08T06:56:55.928Z,174.75
2022-11-08T06:59:59.945Z,217.47
2022-11-08T07:03:07.710Z,408.58
2022-11-08T07:06:11.587Z,493.50
2022-11-08T07:09:15.536Z,206.48
2022-11-08T07:12:23.457Z,394.38
2022-11-08T07:15:35.447Z,381.43
2022-11-08T07:18:38.190Z,507.38
2022-11-08T07:21:43.220Z,423.58
2022-11-08T07:24:48.648Z,268.33
2022-11-08T07:28:59.588Z,493.02
2022-11-08T07:32:01.792Z,362.67
2022-11-08T07:35:05.435Z,211.88
2022-11-08T07:38:16.088Z,473.00
2022-11-08T07:41:18.279Z,502.88
2022-11-08T07:44:20.507Z,684.00
2022-11-08T07:47:22.762Z,849.10
2022-11-08T07:50:27.416Z,255.20
2022-11-08T07:53:30.077Z,316.45
2022-11-08T07:56:44.761Z,275.42
2022-11-08T07:59:47.543Z,155.45
2022-11-08T08:02:50.459Z,583.87
2022-11-08T08:06:00.750Z,654.95
2022-11-08T08:09:03.839Z,995.38
2022-11-08T08:12:06.933Z,826.70
2022-11-08T08:15:10.031Z,510.35
2022-11-08T08:18:12.837Z,312.37
2022-11-08T08:21:15.601Z,626.72
2022-11-08T08:24:18.449Z,404.95
2022-11-08T08:27:21.209Z,632.50
2022-11-08T08:30:24.996Z,89.95
2022-11-08T08:33:29.399Z,96.57
2022-11-08T08:36:32.442Z,668.75
2022-11-08T08:39:35.372Z,109.43
2022-11-08T08:42:38.398Z,65.07
2022-11-08T08:45:43.268Z,55.47
2022-11-08T08:48:59.029Z,72.05
2022-11-08T08:52:12.041Z,126.63
2022-11-08T08:55:15.137Z,111.87
2022-11-08T08:58:17.491Z,56.03
2022-11-08T09:01:40.486Z,81.57
2022-11-08T09:05:02.928Z,64.47
2022-11-08T09:08:05.440Z,121.47
2022-11-08T09:11:08.052Z,76.80
2022-11-08T09:14:10.427Z,55.38
2022-11-08T09:17:12.738Z,49.55
2022-11-08T09:20:15.045Z,63.47
2022-11-08T09:23:17.920Z,54.20
2022-11-08T09:26:20.558Z,51.93
2022-11-08T09:29:24.979Z,51.42
2022-11-08T09:32:46.583Z,47.15
2022-11-08T09:35:54.026Z,43.97
2022-11-08T09:38:56.252Z,52.00
2022-11-08T09:42:07.605Z,44.13
2022-11-08T09:45:32.247Z,50.03
2022-11-08T09:48:37.095Z,44.25
2022-11-08T09:51:43.097Z,40.95
2022-11-08T09:54:49.341Z,41.72
2022-11-08T09:58:05.443Z,43.17
2022-11-08T10:01:10.240Z,38.50
2022-11-08T10:04:16.099Z,42.22
2022-11-08T10:07:45.629Z,41.25
2022-11-08T10:10:57.519Z,40.33
2022-11-08T10:14:10.403Z,40.50
2022-11-08T10:17:17.396Z,41.78
2022-11-08T10:20:38.440Z,44.17
2022-11-08T10:23:45.548Z,51.17
2022-11-08T10:26:48.113Z,42.83
2022-11-08T10:29:52.160Z,42.83
2022-11-08T10:32:56.719Z,38.25
2022-11-08T10:36:07.023Z,41.78
2022-11-08T10:39:09.958Z,42.45
2022-11-08T10:42:34.789Z,42.38
2022-11-08T10:45:37.690Z,43.00
2022-11-08T10:48:43.063Z,40.50
2022-11-08T10:52:01.578Z,38.60
2022-11-08T10:55:45.143Z,37.90
2022-11-08T10:58:53.598Z,42.83
2022-11-08T11:02:02.772Z,37.07
2022-11-08T11:05:18.428Z,44.15
2022-11-08T11:08:21.856Z,43.75
2022-11-08T11:11:27.064Z,45.83
2022-11-08T11:14:31.616Z,45.25
2022-11-08T11:17:39.093Z,41.33
2022-11-08T11:20:42.593Z,40.65
2022-11-08T11:23:51.055Z,43.00
2022-11-08T11:27:05.400Z,40.78
2022-11-08T11:30:26.548Z,37.70
2022-11-08T11:33:30.297Z,37.27
2022-11-08T11:36:37.627Z,40.45
2022-11-08T11:39:52.693Z,37.70
2022-11-08T11:43:13.577Z,35.35
2022-11-08T11:46:16.257Z,33.92
2022-11-08T11:49:20.356Z,37.33
2022-11-08T11:52:25.748Z,37.28
2022-11-08T11:55:46.318Z,38.53
2022-11-08T11:59:01.057Z,35.30
2022-11-08T12:02:22.913Z,34.58
2022-11-08T12:05:25.668Z,35.97
2022-11-08T12:08:28.400Z,35.80
2022-11-08T12:11:42.283Z,31.65
2022-11-08T12:14:55.170Z,37.55
2022-11-08T12:17:57.532Z,35.47
2022-11-08T12:21:20.005Z,36.67
2022-11-08T12:24:49.073Z,39.45
2022-11-08T12:28:05.865Z,34.38
2022-11-08T12:31:16.391Z,33.72
2022-11-08T12:34:19.393Z,34.70
2022-11-08T12:37:36.993Z,31.73
2022-11-08T12:40:48.958Z,33.22
2022-11-08T12:44:04.501Z,30.10
2022-11-08T12:47:23.192Z,38.70
2022-11-08T12:50:30.141Z,36.50
2022-11-08T12:53:51.856Z,33.93
2022-11-08T12:56:59.526Z,34.90
2022-11-08T13:00:15.738Z,39.65
2022-11-08T13:03:32.844Z,37.42
2022-11-08T13:06:43.467Z,40.85
2022-11-08T13:09:49.119Z,39.77
2022-11-08T13:13:03.186Z,42.58
2022-11-08T13:16:08.645Z,47.42
2022-11-08T13:19:31.753Z,41.88
2022-11-08T13:22:41.171Z,40.38
2022-11-08T13:25:44.695Z,43.77
2022-11-08T13:28:48.094Z,47.65
2022-11-08T13:32:02.163Z,41.05
2022-11-08T13:35:09.581Z,47.00
2022-11-08T13:38:22.855Z,45.08
2022-11-08T13:41:26.711Z,41.30
2022-11-08T13:44:48.120Z,44.65
2022-11-08T13:47:53.549Z,38.97
2022-11-08T13:50:57.335Z,41.40
2022-11-08T13:54:08.430Z,40.10
2022-11-08T13:57:18.054Z,47.40
2022-11-08T14:00:35.675Z,46.10
2022-11-08T14:03:47.249Z,45.08
2022-11-08T14:07:25.402Z,44.55
2022-11-08T14:10:32.567Z,49.25
2022-11-08T14:13:58.114Z,49.00
2022-11-08T14:17:10.179Z,49.40
2022-11-08T14:20:18.244Z,47.80
2022-11-08T14:23:21.375Z,55.42
2022-11-08T14:26:24.720Z,55.72
2022-11-08T14:29:26.990Z,59.63
2022-11-08T14:32:29.300Z,62.08
2022-11-08T14:35:31.931Z,52.67
2022-11-08T14:38:45.268Z,52.15
2022-11-08T14:41:55.257Z,56.55
2022-11-08T14:44:58.853Z,61.27
2022-11-08T14:48:04.628Z,56.42
2022-11-08T14:51:07.006Z,59.95
2022-11-08T14:54:23.341Z,58.17
2022-11-08T14:57:30.542Z,68.43
2022-11-08T15:00:32.990Z,61.93
2022-11-08T15:03:35.549Z,65.25
2022-11-08T15:06:42.500Z,59.95
2022-11-08T15:09:45.162Z,60.63
2022-11-08T15:12:47.458Z,65.40
2022-11-08T15:15:52.095Z,58.27
2022-11-08T15:18:54.932Z,62.53
2022-11-08T15:21:58.166Z,60.55
2022-11-08T15:25:23.427Z,63.92
2022-11-08T15:28:34.783Z,60.92
2022-11-08T15:31:41.304Z,69.00
2022-11-08T15:34:44.100Z,60.45
2022-11-08T15:37:49.277Z,67.55
2022-11-08T15:40:52.870Z,71.65
2022-11-08T15:44:06.274Z,58.03
2022-11-08T15:47:28.561Z,71.30
2022-11-08T15:50:31.286Z,75.10
2022-11-08T15:53:35.925Z,75.15
2022-11-08T15:56:39.285Z,74.82
2022-11-08T15:59:44.061Z,64.70
2022-11-08T16:02:48.421Z,71.33
2022-11-08T16:05:50.720Z,76.43
2022-11-08T16:08:53.318Z,81.63
2022-11-08T16:11:55.621Z,75.45
2022-11-08T16:14:58.180Z,80.07
2022-11-08T16:18:01.233Z,84.17
2022-11-08T16:21:03.436Z,75.45
2022-11-08T16:24:05.770Z,77.80
2022-11-08T16:27:09.044Z,68.30
2022-11-08T16:30:16.623Z,76.10
2022-11-08T16:33:18.916Z,81.80
2022-11-08T16:36:22.354Z,78.43
2022-11-08T16:39:28.331Z,81.38
2022-11-08T16:42:30.836Z,73.00
2022-11-08T16:46:03.197Z,79.28
2022-11-08T16:48:58.052Z,77.80
2022-11-08T16:52:00.388Z,80.55
2022-11-08T16:55:04.259Z,66.85
2022-11-08T16:58:07.781Z,74.68
2022-11-08T17:01:19.032Z,88.38
2022-11-08T17:04:21.496Z,82.00
2022-11-08T17:07:25.656Z,76.18
2022-11-08T17:10:29.141Z,90.53
2022-11-08T17:13:34.925Z,82.38
2022-11-08T17:16:40.088Z,78.35
2022-11-08T17:19:42.599Z,84.13
2022-11-08T17:22:45.126Z,86.72
2022-11-08T17:25:47.502Z,83.20
2022-11-08T17:28:49.807Z,78.30
2022-11-08T17:31:52.504Z,93.18
2022-11-08T17:34:55.117Z,89.33
2022-11-08T17:37:57.478Z,80.72
2022-11-08T17:41:06.721Z,89.60
2022-11-08T17:44:09.428Z,79.57
2022-11-08T17:47:11.864Z,88.85
2022-11-08T17:50:14.795Z,86.67
2022-11-08T17:53:17.512Z,93.38
2022-11-08T17:56:20.033Z,88.60
2022-11-08T17:59:22.385Z,86.53
2022-11-08T18:02:25.488Z,88.68
2022-11-08T18:05:27.888Z,92.53
2022-11-08T18:08:31.536Z,92.85
2022-11-08T18:11:33.931Z,92.70
2022-11-08T18:14:36.426Z,95.72
2022-11-08T18:17:38.901Z,91.10
2022-11-08T18:20:58.928Z,80.47
2022-11-08T18:24:06.901Z,96.25
2022-11-08T18:27:11.286Z,93.18
2022-11-08T18:30:13.867Z,90.22
2022-11-08T18:33:17.310Z,88.97
2022-11-08T18:36:20.902Z,86.27
2022-11-08T18:39:23.690Z,85.65
2022-11-08T18:42:26.119Z,87.43
2022-11-08T18:45:28.566Z,84.68
2022-11-08T18:48:32.399Z,84.45
2022-11-08T18:51:34.885Z,87.93
2022-11-08T18:54:37.945Z,89.50
2022-11-08T18:57:40.986Z,82.22
2022-11-08T19:00:43.371Z,80.32
2022-11-08T19:03:46.103Z,86.10
2022-11-08T19:06:54.355Z,96.87
2022-11-08T19:09:57.574Z,93.57
2022-11-08T19:13:04.574Z,83.60
2022-11-08T19:16:15.136Z,79.05
2022-11-08T19:19:18.249Z,77.95
2022-11-08T19:22:21.099Z,79.60
2022-11-08T19:25:23.988Z,88.43
2022-11-08T19:28:31.656Z,71.63
2022-11-08T19:31:39.055Z,81.05
2022-11-08T19:34:41.926Z,85.70
2022-11-08T19:37:45.067Z,75.63
2022-11-08T19:40:48.466Z,88.90
2022-11-08T19:43:51.857Z,83.65
2022-11-08T19:46:54.306Z,83.65
2022-11-08T19:49:56.589Z,75.40
2022-11-08T19:52:58.788Z,84.70
2022-11-08T19:56:05.802Z,78.60
2022-11-08T19:59:08.747Z,78.20
2022-11-08T20:02:11.427Z,80.85
2022-11-08T20:05:13.672Z,70.28
2022-11-08T20:08:16.054Z,74.57
2022-11-08T20:11:19.976Z,69.95
2022-11-08T20:14:22.282Z,66.00
2022-11-08T20:17:24.710Z,72.97
2022-11-08T20:20:29.685Z,73.63
2022-11-08T20:23:32.917Z,69.80
2022-11-08T20:26:38.543Z,59.47
2022-11-08T20:29:40.987Z,67.80
2022-11-08T20:32:43.220Z,67.88
2022-11-08T20:35:46.008Z,61.88
2022-11-08T20:38:48.959Z,67.50
2022-11-08T20:41:51.301Z,66.22
2022-11-08T20:44:53.651Z,60.40
2022-11-08T20:47:55.827Z,69.50
2022-11-08T20:50:58.969Z,65.15
2022-11-08T20:54:01.824Z,58.17
2022-11-08T20:57:03.982Z,63.58
2022-11-08T21:00:13.029Z,58.08
2022-11-08T21:03:18.920Z,62.20
2022-11-08T21:06:22.734Z,59.95
2022-11-08T21:09:39.383Z,67.07
2022-11-08T21:12:44.623Z,68.65
2022-11-08T21:15:47.355Z,62.00
2022-11-08T21:18:49.662Z,61.80
2022-11-08T21:22:12.050Z,63.33
2022-11-08T21:25:14.602Z,62.07
2022-11-08T21:28:17.210Z,55.63
2022-11-08T21:31:19.855Z,64.10
2022-11-08T21:34:22.031Z,66.70
2022-11-08T21:37:24.226Z,65.65
2022-11-08T21:40:26.454Z,68.07
2022-11-08T21:43:28.949Z,65.78
2022-11-08T21:46:31.243Z,67.28
2022-11-08T21:49:33.456Z,68.55
2022-11-08T21:52:35.610Z,65.68
2022-11-08T21:55:37.745Z,67.43
2022-11-08T21:58:39.926Z,61.75
2022-11-08T22:01:42.178Z,66.22
2022-11-08T22:04:44.401Z,65.60
2022-11-08T22:07:46.725Z,65.38
2022-11-08T22:10:48.895Z,65.93
2022-11-08T22:13:51.077Z,76.05
2022-11-08T22:16:53.222Z,74.03
2022-11-08T22:19:55.439Z,67.43
2022-11-08T22:22:57.751Z,66.30
2022-11-08T22:26:00.049Z,64.33
2022-11-08T22:29:03.478Z,65.35
2022-11-08T22:32:05.740Z,63.88
2022-11-08T22:35:08.131Z,68.00
2022-11-08T22:38:10.381Z,73.43
2022-11-08T22:41:16.393Z,64.17
2022-11-08T22:44:18.937Z,66.63
2022-11-08T22:47:21.113Z,63.03
2022-11-08T22:50:23.299Z,68.18
2022-11-08T22:53:25.478Z,69.95
2022-11-08T22:56:27.760Z,69.63
2022-11-08T22:59:29.923Z,67.82
2022-11-08T23:02:33.357Z,65.93
2022-11-08T23:05:35.668Z,74.07
2022-11-08T23:08:37.962Z,68.05
2022-11-08T23:11:58.696Z,61.13
2022-11-08T23:15:19.468Z,61.00
2022-11-08T23:18:22.113Z,64.88
2022-11-08T23:21:43.101Z,63.13
2022-11-08T23:24:45.484Z,71.45
2022-11-08T23:28:06.285Z,65.87
2022-11-08T23:31:30.395Z,58.83
2022-11-08T23:34:32.549Z,64.80
2022-11-08T23:37:34.702Z,66.97
2022-11-08T23:40:55.671Z,56.10
2022-11-08T23:44:16.561Z,61.57
2022-11-08T23:47:18.714Z,64.97
2022-11-08T23:50:20.966Z,60.30
2022-11-08T23:53:26.705Z,61.45
2022-11-08T23:56:29.323Z,54.60
2022-11-08T23:59:31.542Z,58.67
